Time;durP1;ratioP1;P1;durP2;ratioP2;P2;SDS_P1;SDS_P2;PMS_P1;PMS_P2;Temp;Humidity;BMP_temperature;BMP_pressure;BME280_temperature;BME280_humidity;BME280_pressure;Samples;Min_cycle;Max_cycle;Signal;HPM_P1;HPM_P2
2020/12/29 00:00:33;;;;;;;7.20;6.00;;;;;;;3.43;100.00;96749.41;5057867;28;20294;-30
2020/12/29 00:03:19;;;;;;;8.03;5.47;;;;;;;3.52;100.00;96753.34;5058096;28;20197;-30
2020/12/29 00:06:08;;;;;;;5.73;5.23;;;;;;;3.52;100.00;96755.91;5059889;28;20193;-30
2020/12/29 00:08:54;;;;;;;4.67;4.23;;;;;;;3.46;100.00;96753.56;5058303;28;20555;-30
2020/12/29 00:11:41;;;;;;;4.30;3.90;;;;;;;3.55;100.00;96758.34;5058280;28;20200;-30
2020/12/29 00:14:28;;;;;;;4.40;4.00;;;;;;;3.63;100.00;96758.03;5059257;28;20557;-30
2020/12/29 00:17:14;;;;;;;4.57;4.17;;;;;;;3.58;100.00;96755.69;5060746;28;20204;-30
2020/12/29 00:20:00;;;;;;;6.03;4.90;;;;;;;3.52;100.00;96765.28;5064131;28;20204;-30
2020/12/29 00:22:47;;;;;;;4.90;4.50;;;;;;;3.46;100.00;96756.97;5079146;28;20200;-30
2020/12/29 00:25:36;;;;;;;4.30;3.90;;;;;;;3.44;100.00;96760.47;5079875;28;20273;-30
2020/12/29 00:28:23;;;;;;;4.77;4.33;;;;;;;3.52;100.00;96755.91;5080072;28;20228;-29
2020/12/29 00:31:09;;;;;;;5.50;4.87;;;;;;;3.65;100.00;96759.66;5079753;28;20224;-30
2020/12/29 00:33:58;;;;;;;8.43;5.50;;;;;;;3.61;100.00;96749.59;5076752;28;20227;-30
2020/12/29 00:36:44;;;;;;;10.57;5.10;;;;;;;3.49;100.00;96748.34;5079548;28;20213;-30
2020/12/29 00:39:31;;;;;;;9.60;5.23;;;;;;;3.50;100.00;96747.47;5078873;28;20231;-29
2020/12/29 00:42:17;;;;;;;13.53;5.97;;;;;;;3.47;100.00;96750.13;5078632;28;20197;-30
2020/12/29 00:45:04;;;;;;;13.70;6.10;;;;;;;3.45;100.00;96749.34;5079334;28;20196;-30
2020/12/29 00:47:51;;;;;;;8.50;5.07;;;;;;;3.60;100.00;96750.47;5080352;28;20188;-30
2020/12/29 00:50:38;;;;;;;10.43;5.60;;;;;;;3.65;100.00;96748.59;5079054;28;20248;-30
2020/12/29 00:53:25;;;;;;;6.53;3.90;;;;;;;3.65;100.00;96741.75;5080211;28;20209;-30
2020/12/29 00:56:11;;;;;;;7.13;4.60;;;;;;;3.63;100.00;96748.66;5078563;28;20188;-31
2020/12/29 00:58:58;;;;;;;5.23;3.70;;;;;;;3.62;100.00;96741.03;5080181;28;20172;-31
2020/12/29 01:01:44;;;;;;;3.53;3.20;;;;;;;3.95;100.00;96742.31;5079852;28;20284;-31
2020/12/29 01:04:31;;;;;;;3.60;3.30;;;;;;;3.69;100.00;96747.59;5078210;28;20182;-30
2020/12/29 01:07:18;;;;;;;3.87;3.47;;;;;;;3.71;100.00;96745.81;5079311;28;20201;-31
2020/12/29 01:10:06;;;;;;;4.43;3.10;;;;;;;3.67;100.00;96745.09;5079149;28;20265;-31
2020/12/29 01:12:54;;;;;;;4.03;3.23;;;;;;;3.83;100.00;96753.00;5076743;28;20270;-31
2020/12/29 01:15:41;;;;;;;4.50;4.03;;;;;;;3.64;100.00;96749.47;5076865;28;20212;-30
2020/12/29 01:18:27;;;;;;;4.10;3.70;;;;;;;3.59;100.00;96752.22;5077764;28;20223;-30
2020/12/29 01:21:14;;;;;;;4.17;3.73;;;;;;;3.61;100.00;96754.69;5077564;28;20208;-30
2020/12/29 01:24:01;;;;;;;3.47;3.17;;;;;;;3.65;100.00;96751.16;5078357;28;20192;-30
2020/12/29 01:26:47;;;;;;;3.70;3.40;;;;;;;3.58;100.00;96754.84;5074598;28;20196;-31
2020/12/29 01:29:36;;;;;;;3.80;3.33;;;;;;;3.69;100.00;96757.81;5072951;28;20274;-30
2020/12/29 01:32:22;;;;;;;4.33;3.60;;;;;;;3.60;100.00;96770.91;5072777;28;20227;-30
2020/12/29 01:35:08;;;;;;;3.60;3.30;;;;;;;3.69;100.00;96763.75;5074899;28;20184;-30
2020/12/29 01:37:55;;;;;;;3.70;3.10;;;;;;;3.68;100.00;96772.31;5073362;28;20235;-31
2020/12/29 01:40:42;;;;;;;3.70;3.40;;;;;;;3.78;100.00;96772.81;5074004;28;20204;-30
2020/12/29 01:43:29;;;;;;;3.27;2.97;;;;;;;3.76;100.00;96772.88;5073816;28;20204;-31
2020/12/29 01:46:17;;;;;;;3.50;3.20;;;;;;;3.90;100.00;96779.16;5075076;28;20185;-31
2020/12/29 01:49:03;;;;;;;3.77;2.70;;;;;;;4.02;100.00;96778.66;5074422;28;20457;-31
2020/12/29 01:51:51;;;;;;;3.43;3.07;;;;;;;4.02;100.00;96774.38;5072994;28;20188;-30
2020/12/29 01:54:41;;;;;;;3.40;3.10;;;;;;;4.44;100.00;96782.06;5068771;28;20240;-31
2020/12/29 01:57:32;;;;;;;3.30;2.83;;;;;;;4.26;100.00;96777.69;5065182;28;20252;-31
2020/12/29 02:00:23;;;;;;;2.90;2.70;;;;;;;4.26;100.00;96775.13;5073598;28;20193;-31
2020/12/29 02:03:15;;;;;;;3.27;2.97;;;;;;;4.00;100.00;96775.34;5071982;28;20217;-31
2020/12/29 02:06:01;;;;;;;3.07;2.63;;;;;;;4.10;100.00;96776.66;5074478;28;20220;-31
2020/12/29 02:08:49;;;;;;;3.30;3.00;;;;;;;4.03;100.00;96782.88;5063939;28;20201;-31
2020/12/29 02:11:38;;;;;;;6.73;4.73;;;;;;;4.06;100.00;96787.88;5063194;28;20305;-31
2020/12/29 02:14:25;;;;;;;6.57;3.90;;;;;;;3.98;100.00;96780.53;5059844;28;20251;-30
2020/12/29 02:17:11;;;;;;;5.00;4.30;;;;;;;4.05;100.00;96778.56;5059333;28;20196;-31
2020/12/29 02:19:58;;;;;;;6.27;4.57;;;;;;;4.54;100.00;96781.69;5061136;28;20630;-31
2020/12/29 02:22:44;;;;;;;4.80;4.30;;;;;;;4.41;100.00;96786.47;5059408;28;20350;-30
2020/12/29 02:25:30;;;;;;;5.67;4.10;;;;;;;4.79;100.00;96792.59;5059098;28;20267;-30
2020/12/29 02:28:16;;;;;;;6.17;4.87;;;;;;;4.96;100.00;96787.56;5060129;28;20196;-30
2020/12/29 02:31:03;;;;;;;5.10;3.37;;;;;;;4.22;100.00;96794.06;5059060;28;20204;-30
2020/12/29 02:33:49;;;;;;;4.03;3.17;;;;;;;3.69;100.00;96796.97;5059885;28;20703;-30
2020/12/29 02:36:35;;;;;;;3.83;3.50;;;;;;;3.56;100.00;96795.78;5059410;28;20303;-31
2020/12/29 02:39:22;;;;;;;3.53;3.23;;;;;;;4.09;100.00;96800.56;5059557;28;20595;-30
2020/12/29 02:42:08;;;;;;;4.20;3.80;;;;;;;4.13;100.00;96799.56;5058482;28;20602;-31
2020/12/29 02:44:54;;;;;;;4.10;3.70;;;;;;;4.07;100.00;96803.16;5059232;28;20557;-30
2020/12/29 02:47:41;;;;;;;4.67;3.60;;;;;;;3.86;100.00;96805.72;5059203;28;20200;-31
2020/12/29 02:50:31;;;;;;;4.40;4.00;;;;;;;3.77;100.00;96810.31;5058577;28;20208;-31
2020/12/29 02:53:17;;;;;;;3.87;3.57;;;;;;;3.69;100.00;96808.91;5058899;28;20738;-31
2020/12/29 02:56:04;;;;;;;3.67;3.37;;;;;;;3.55;100.00;96821.38;5058951;28;20353;-31
2020/12/29 02:58:51;;;;;;;3.73;3.30;;;;;;;3.50;100.00;96815.59;5061043;28;20267;-30
2020/12/29 03:01:37;;;;;;;3.90;2.97;;;;;;;3.61;100.00;96826.25;5058289;28;20487;-30
2020/12/29 03:04:24;;;;;;;4.30;3.37;;;;;;;3.67;100.00;96828.59;5062580;28;20192;-30
2020/12/29 03:07:10;;;;;;;2.93;2.73;;;;;;;3.81;100.00;96828.91;5064556;28;20323;-31
2020/12/29 03:09:56;;;;;;;3.47;3.20;;;;;;;3.94;100.00;96831.84;5059285;28;20197;-30
2020/12/29 03:12:43;;;;;;;4.43;2.60;;;;;;;3.90;100.00;96828.56;5058474;28;20205;-31
2020/12/29 03:15:29;;;;;;;2.87;2.67;;;;;;;3.77;100.00;96833.31;5058570;28;20247;-30
2020/12/29 03:18:15;;;;;;;2.80;2.60;;;;;;;3.64;100.00;96836.38;5058976;28;20518;-30
2020/12/29 03:21:04;;;;;;;3.20;2.47;;;;;;;3.74;100.00;96846.22;5060546;28;20249;-30
2020/12/29 03:23:51;;;;;;;6.27;2.67;;;;;;;3.88;100.00;96840.56;5061519;28;20196;-30
2020/12/29 03:26:37;;;;;;;3.50;2.90;;;;;;;3.58;100.00;96844.28;5058876;28;20221;-30
2020/12/29 03:29:23;;;;;;;3.40;3.03;;;;;;;3.51;100.00;96843.66;5058524;28;20650;-30
2020/12/29 03:32:09;;;;;;;6.63;2.93;;;;;;;3.36;100.00;96846.78;5060396;28;20247;-30
2020/12/29 03:34:56;;;;;;;4.63;2.90;;;;;;;3.66;100.00;96844.81;5060725;28;20224;-30
2020/12/29 03:37:42;;;;;;;3.70;3.00;;;;;;;3.60;100.00;96852.69;5064155;28;20197;-30
2020/12/29 03:40:31;;;;;;;3.97;3.03;;;;;;;3.41;100.00;96852.53;5059168;28;20331;-31
2020/12/29 03:43:18;;;;;;;2.93;2.67;;;;;;;3.45;100.00;96854.09;5066077;28;20215;-31
2020/12/29 03:46:05;;;;;;;2.43;2.23;;;;;;;3.54;100.00;96861.44;5060352;28;20630;-31
2020/12/29 03:48:51;;;;;;;3.07;2.87;;;;;;;3.62;100.00;96861.13;5059186;28;20196;-30
2020/12/29 03:51:37;;;;;;;3.33;2.73;;;;;;;3.59;100.00;96862.09;5058609;28;20200;-30
2020/12/29 03:54:23;;;;;;;4.23;2.90;;;;;;;3.46;100.00;96869.34;5058978;28;20326;-31
2020/12/29 03:57:08;;;;;;;3.80;2.77;;;;;;;3.43;100.00;96866.06;5058375;28;20632;-31
2020/12/29 03:59:56;;;;;;;3.73;2.90;;;;;;;3.65;100.00;96866.97;5059115;28;20215;-31
2020/12/29 04:02:44;;;;;;;3.23;2.93;;;;;;;3.49;100.00;96868.41;5058257;28;20203;-31
2020/12/29 04:05:30;;;;;;;2.80;2.60;;;;;;;3.51;100.00;96865.81;5057625;28;20204;-31
2020/12/29 04:08:20;;;;;;;2.93;2.73;;;;;;;3.59;100.00;96872.34;5058228;28;20602;-31
2020/12/29 04:11:07;;;;;;;3.70;2.97;;;;;;;3.76;100.00;96877.66;5059533;28;20204;-30
2020/12/29 04:14:08;;;;;;;2.50;2.30;;;;;;;3.87;100.00;96879.81;5058503;28;20227;-30
2020/12/29 04:16:55;;;;;;;3.57;2.53;;;;;;;3.86;100.00;96874.75;5059030;28;20298;-30
2020/12/29 04:19:42;;;;;;;2.93;2.73;;;;;;;3.84;100.00;96876.53;5057989;28;20593;-30
2020/12/29 04:22:30;;;;;;;3.10;2.50;;;;;;;3.92;100.00;96872.81;5058335;28;20590;-30
2020/12/29 04:25:16;;;;;;;4.17;2.87;;;;;;;3.87;100.00;96874.69;5057634;28;20236;-31
2020/12/29 04:28:02;;;;;;;3.83;2.90;;;;;;;3.91;100.00;96865.19;5057721;28;20216;-30
2020/12/29 04:30:48;;;;;;;2.83;2.60;;;;;;;3.75;100.00;96870.88;5060256;28;20228;-30
2020/12/29 04:33:35;;;;;;;3.53;2.87;;;;;;;3.80;100.00;96881.75;5058905;28;20506;-30
2020/12/29 04:36:22;;;;;;;3.00;2.77;;;;;;;3.97;100.00;96882.88;5057607;28;20227;-31
2020/12/29 04:39:08;;;;;;;4.27;2.33;;;;;;;3.90;100.00;96883.97;5060718;28;20227;-31
2020/12/29 04:42:02;;;;;;;3.90;2.57;;;;;;;3.98;100.00;96881.97;5057599;28;20220;-31
2020/12/29 04:44:48;;;;;;;2.70;2.50;;;;;;;4.22;100.00;96875.06;5057483;28;20197;-31
2020/12/29 04:47:34;;;;;;;2.90;2.47;;;;;;;4.10;100.00;96873.81;5057187;28;20196;-30
2020/12/29 04:50:21;;;;;;;3.07;2.57;;;;;;;4.15;100.00;96883.00;5057740;28;20256;-31
2020/12/29 04:53:09;;;;;;;3.00;2.70;;;;;;;4.19;100.00;96876.03;5057745;28;20200;-31
2020/12/29 04:56:01;;;;;;;2.83;2.63;;;;;;;4.35;100.00;96869.44;5057796;28;20595;-31
2020/12/29 04:58:49;;;;;;;3.13;2.93;;;;;;;4.11;100.00;96875.50;5058443;28;20298;-31
2020/12/29 05:01:35;;;;;;;3.00;2.67;;;;;;;4.22;100.00;96881.03;5057952;28;20251;-29
2020/12/29 05:04:22;;;;;;;2.87;2.67;;;;;;;4.41;100.00;96889.66;5059060;28;20259;-30
2020/12/29 05:07:09;;;;;;;3.20;2.90;;;;;;;4.54;100.00;96890.00;5061003;28;20216;-30
2020/12/29 05:10:05;;;;;;;3.20;2.90;;;;;;;4.83;100.00;96896.50;5066039;28;20201;-29
2020/12/29 05:12:53;;;;;;;3.37;3.07;;;;;;;4.73;100.00;96897.78;5062197;28;20613;-32
2020/12/29 05:15:39;;;;;;;2.80;2.60;;;;;;;4.82;100.00;96902.53;5061070;28;20502;-30
2020/12/29 05:18:26;;;;;;;3.20;2.80;;;;;;;4.53;100.00;96897.75;5061211;28;20201;-29
2020/12/29 05:21:12;;;;;;;3.70;2.90;;;;;;;4.58;100.00;96903.53;5060645;28;20254;-29
2020/12/29 05:24:07;;;;;;;3.30;3.00;;;;;;;4.41;100.00;96905.00;5060282;28;20232;-30
2020/12/29 05:26:57;;;;;;;4.63;4.10;;;;;;;4.15;100.00;96910.31;5060274;28;20208;-30
2020/12/29 05:29:43;;;;;;;7.90;5.03;;;;;;;3.95;100.00;96918.72;5060423;28;20201;-30
2020/12/29 05:32:29;;;;;;;7.73;5.90;;;;;;;3.96;100.00;96929.78;5060104;28;20200;-30
2020/12/29 05:35:16;;;;;;;6.50;4.83;;;;;;;3.70;100.00;96931.53;5060219;28;20228;-30
2020/12/29 05:38:02;;;;;;;6.27;5.03;;;;;;;3.69;100.00;96937.53;5060906;28;20216;-30
2020/12/29 05:40:50;;;;;;;4.90;4.43;;;;;;;3.77;100.00;96938.09;5060883;28;20204;-30
2020/12/29 05:43:37;;;;;;;6.07;4.33;;;;;;;3.99;100.00;96943.28;5064071;28;20489;-30
2020/12/29 05:46:28;;;;;;;4.47;4.07;;;;;;;4.17;100.00;96946.06;5060360;28;20200;-30
2020/12/29 05:49:18;;;;;;;5.80;3.67;;;;;;;3.73;100.00;96951.88;5059440;28;20205;-30
2020/12/29 05:52:06;;;;;;;4.63;3.70;;;;;;;3.61;100.00;96957.41;5073520;28;20228;-30
2020/12/29 05:54:52;;;;;;;4.70;4.00;;;;;;;3.89;100.00;96961.56;5061504;28;20228;-30
2020/12/29 05:57:39;;;;;;;6.33;3.60;;;;;;;4.27;100.00;96960.16;5059394;28;20541;-30
2020/12/29 06:00:27;;;;;;;4.60;3.37;;;;;;;4.20;100.00;96963.84;5060013;28;20205;-30
2020/12/29 06:03:15;;;;;;;3.43;3.17;;;;;;;4.06;100.00;96966.88;5059630;28;20251;-30
2020/12/29 06:06:06;;;;;;;3.53;3.10;;;;;;;3.78;100.00;96973.00;5059937;28;20495;-30
2020/12/29 06:09:00;;;;;;;4.10;3.67;;;;;;;4.19;100.00;96978.34;5059290;28;20483;-30
2020/12/29 06:11:55;;;;;;;3.80;3.50;;;;;;;4.26;100.00;96978.94;5061125;28;20199;-30
2020/12/29 06:14:47;;;;;;;3.87;3.50;;;;;;;4.10;100.00;96987.19;5059709;28;20287;-30
2020/12/29 06:17:43;;;;;;;3.47;3.10;;;;;;;3.68;100.00;96992.09;5059235;28;20204;-29
2020/12/29 06:20:34;;;;;;;3.60;3.30;;;;;;;3.83;100.00;97000.09;5059435;28;20606;-30
2020/12/29 06:23:27;;;;;;;3.87;3.17;;;;;;;3.78;100.00;97000.28;5059570;28;20259;-29
2020/12/29 06:26:17;;;;;;;3.23;2.93;;;;;;;4.04;100.00;97004.47;5058361;28;20328;-29
2020/12/29 06:29:03;;;;;;;3.90;3.43;;;;;;;4.06;100.00;97010.38;5059656;28;20476;-30
2020/12/29 06:31:51;;;;;;;3.50;3.20;;;;;;;4.32;100.00;97011.97;5062284;28;20487;-31
2020/12/29 06:34:39;;;;;;;4.00;3.70;;;;;;;4.52;100.00;97012.06;5066240;28;20224;-30
2020/12/29 06:37:26;;;;;;;4.27;3.57;;;;;;;4.34;100.00;97012.75;5060006;28;20471;-30
2020/12/29 06:40:14;;;;;;;5.33;3.50;;;;;;;4.63;100.00;97014.22;5062184;28;20257;-30
2020/12/29 06:43:00;;;;;;;3.87;3.57;;;;;;;4.18;100.00;97029.56;5059343;28;20239;-30
2020/12/29 06:45:46;;;;;;;4.37;3.30;;;;;;;3.86;100.00;97025.56;5059734;28;20270;-30
2020/12/29 06:48:32;;;;;;;3.60;3.30;;;;;;;4.06;100.00;97030.81;5059241;28;20201;-30
2020/12/29 06:51:20;;;;;;;4.63;3.93;;;;;;;4.20;100.00;97038.03;5058737;28;20208;-30
2020/12/29 06:54:08;;;;;;;4.43;3.57;;;;;;;4.06;100.00;97036.78;5058425;28;20503;-30
2020/12/29 06:56:58;;;;;;;4.83;4.13;;;;;;;4.02;100.00;97040.31;5058737;28;20303;-30
2020/12/29 06:59:44;;;;;;;4.47;4.07;;;;;;;4.17;100.00;97051.75;5058521;28;20195;-30
2020/12/29 07:02:36;;;;;;;3.70;3.40;;;;;;;3.86;100.00;97056.25;5058816;28;20314;-30
2020/12/29 07:05:23;;;;;;;4.03;3.73;;;;;;;3.61;100.00;97062.16;5058894;28;20201;-30
2020/12/29 07:08:10;;;;;;;3.97;3.67;;;;;;;3.80;100.00;97067.50;5060793;28;20205;-30
2020/12/29 07:10:58;;;;;;;5.07;4.47;;;;;;;3.86;100.00;97081.81;5063823;28;20298;-30
2020/12/29 07:13:48;;;;;;;6.13;3.87;;;;;;;3.75;100.00;97085.56;5059204;28;20585;-30
2020/12/29 07:16:35;;;;;;;4.90;3.80;;;;;;;3.74;100.00;97090.72;5062034;28;20196;-30
2020/12/29 07:19:23;;;;;;;4.50;4.10;;;;;;;3.61;100.00;97089.44;5059033;28;20594;-29
2020/12/29 07:22:15;;;;;;;5.77;4.30;;;;;;;3.77;100.00;97095.75;5058071;28;20483;-30
2020/12/29 07:25:03;;;;;;;5.60;5.00;;;;;;;3.68;100.00;97093.47;5049882;28;20343;-41
2020/12/29 07:27:50;;;;;;;5.30;4.80;;;;;;;3.84;100.00;97106.59;5038907;28;20594;-30
2020/12/29 07:30:36;;;;;;;6.33;4.23;;;;;;;3.59;100.00;97097.19;5038961;28;20201;-30
2020/12/29 07:33:23;;;;;;;4.43;4.03;;;;;;;3.50;100.00;97109.41;5038682;28;20344;-30
2020/12/29 07:36:09;;;;;;;5.80;4.40;;;;;;;3.59;100.00;97115.06;5037932;28;20204;-30
2020/12/29 07:38:58;;;;;;;5.73;4.40;;;;;;;3.27;100.00;97118.63;5038107;28;20275;-30
2020/12/29 07:41:45;;;;;;;9.03;6.00;;;;;;;3.13;100.00;97122.50;5038885;28;20372;-30
2020/12/29 07:44:32;;;;;;;6.67;6.07;;;;;;;3.36;100.00;97133.69;5038319;28;20196;-30
2020/12/29 07:47:18;;;;;;;6.57;5.97;;;;;;;3.24;100.00;97134.03;5038195;28;20221;-30
2020/12/29 07:50:04;;;;;;;7.07;5.90;;;;;;;3.04;100.00;97134.63;5041064;28;20372;-30
2020/12/29 07:52:50;;;;;;;6.70;5.67;;;;;;;2.91;100.00;97147.81;5047195;28;20193;-30
2020/12/29 07:55:37;;;;;;;9.33;5.90;;;;;;;3.14;100.00;97152.25;5038436;28;20233;-30
2020/12/29 07:58:24;;;;;;;6.10;5.50;;;;;;;3.43;100.00;97149.63;5038775;28;20193;-30
2020/12/29 08:01:13;;;;;;;5.67;5.13;;;;;;;3.21;100.00;97153.72;5038262;28;20292;-29
2020/12/29 08:03:59;;;;;;;5.93;5.07;;;;;;;3.31;100.00;97155.97;5038721;28;20490;-30
2020/12/29 08:06:45;;;;;;;7.03;6.27;;;;;;;3.13;100.00;97165.91;5039252;28;20201;-30
2020/12/29 08:09:44;;;;;;;8.53;6.33;;;;;;;3.16;100.00;97174.31;5028520;28;20485;-30
2020/12/29 08:12:30;;;;;;;8.57;6.40;;;;;;;3.11;100.00;97174.44;5018142;28;20201;-30
2020/12/29 08:15:26;;;;;;;9.07;7.53;;;;;;;3.22;100.00;97183.50;5018038;28;20322;-31
2020/12/29 08:18:15;;;;;;;8.20;7.00;;;;;;;3.29;100.00;97195.22;5017797;28;20201;-30
2020/12/29 08:21:01;;;;;;;10.00;7.43;;;;;;;4.12;100.00;97199.41;5018124;28;20225;-30
2020/12/29 08:23:50;;;;;;;8.07;7.17;;;;;;;4.55;100.00;97197.97;5018472;28;20588;-31
2020/12/29 08:26:38;;;;;;;9.37;7.03;;;;;;;3.71;100.00;97208.41;5019731;28;20563;-31
2020/12/29 08:29:25;;;;;;;9.37;7.97;;;;;;;3.95;100.00;97214.47;5028930;28;20202;-30
2020/12/29 08:32:16;;;;;;;8.13;7.23;;;;;;;4.01;100.00;97211.69;5028737;28;20209;-31
2020/12/29 08:35:03;;;;;;;8.13;7.33;;;;;;;4.22;100.00;97218.66;5018060;28;20292;-31
2020/12/29 08:38:03;;;;;;;8.20;6.90;;;;;;;3.76;100.00;97214.22;5017884;28;20202;-30
2020/12/29 08:41:03;;;;;;;8.87;7.93;;;;;;;3.84;100.00;97225.00;5021206;28;20198;-30
2020/12/29 08:43:52;;;;;;;9.60;8.03;;;;;;;3.87;100.00;97226.66;5021429;28;20197;-31
2020/12/29 08:46:38;;;;;;;10.70;7.83;;;;;;;3.86;100.00;97237.75;5021237;28;20206;-31
2020/12/29 08:49:30;;;;;;;11.30;7.30;;;;;;;3.68;100.00;97240.00;5022074;28;20475;-30
2020/12/29 08:52:30;;;;;;;8.60;7.77;;;;;;;3.73;100.00;97250.09;5021686;28;20249;-31
2020/12/29 08:55:30;;;;;;;10.37;9.27;;;;;;;4.08;100.00;97266.88;5024677;28;20221;-31
2020/12/29 08:58:24;;;;;;;15.03;9.17;;;;;;;4.11;100.00;97271.91;5022470;28;20218;-31
2020/12/29 09:01:31;;;;;;;13.07;9.50;;;;;;;3.91;100.00;97269.97;5022414;28;20193;-31
2020/12/29 09:04:25;;;;;;;11.53;8.67;;;;;;;3.78;100.00;97278.91;5023943;28;20293;-31
2020/12/29 09:07:13;;;;;;;11.27;8.93;;;;;;;4.13;100.00;97276.09;5021863;28;20221;-31
2020/12/29 09:10:04;;;;;;;13.77;9.00;;;;;;;4.10;100.00;97273.63;5021698;28;20202;-31
2020/12/29 09:12:50;;;;;;;12.60;8.77;;;;;;;3.94;100.00;97274.16;5020816;28;20211;-30
2020/12/29 09:15:36;;;;;;;12.33;9.17;;;;;;;4.55;100.00;97290.94;5021919;28;20221;-31
2020/12/29 09:18:22;;;;;;;11.83;9.40;;;;;;;4.54;100.00;97299.50;5020986;28;20296;-31
2020/12/29 09:21:26;;;;;;;11.77;8.00;;;;;;;4.83;100.00;97309.59;5024723;28;20224;-31
2020/12/29 09:24:20;;;;;;;11.97;8.90;;;;;;;4.91;100.00;97314.47;5021273;28;20294;-31
2020/12/29 09:27:06;;;;;;;9.13;8.10;;;;;;;4.95;100.00;97325.44;5020871;28;20202;-30
2020/12/29 09:29:53;;;;;;;11.00;8.17;;;;;;;4.69;100.00;97327.16;5022852;28;20618;-31
2020/12/29 09:32:39;;;;;;;14.20;8.43;;;;;;;4.59;100.00;97330.91;5040116;28;20808;-30
2020/12/29 09:35:25;;;;;;;11.80;8.57;;;;;;;4.37;100.00;97330.78;5039764;28;20222;-31
2020/12/29 09:38:14;;;;;;;11.53;8.53;;;;;;;4.06;100.00;97340.25;5043513;28;20205;-31
2020/12/29 09:41:21;;;;;;;10.63;8.40;;;;;;;4.06;100.00;97340.25;5040822;28;20197;-30
2020/12/29 09:44:08;;;;;;;13.80;9.87;;;;;;;4.07;100.00;97347.88;5044647;28;20205;-30
2020/12/29 09:46:56;;;;;;;13.57;9.37;;;;;;;4.08;100.00;97346.16;5040239;28;20356;-30
2020/12/29 09:49:43;;;;;;;10.90;8.80;;;;;;;3.97;100.00;97348.22;5040833;28;20535;-30
2020/12/29 09:52:30;;;;;;;17.10;8.57;;;;;;;3.88;100.00;97349.31;5043231;28;20200;-30
2020/12/29 09:55:23;;;;;;;10.87;8.43;;;;;;;3.80;100.00;97357.19;5039945;28;20678;-32
2020/12/29 09:58:11;;;;;;;12.50;7.70;;;;;;;3.90;100.00;97359.50;5041718;28;20529;-30
2020/12/29 10:01:00;;;;;;;12.87;8.53;;;;;;;4.06;100.00;97364.13;5039330;28;20552;-31
2020/12/29 10:03:45;;;;;;;10.97;7.30;;;;;;;4.10;100.00;97382.78;5039991;28;20285;-30
2020/12/29 10:06:31;;;;;;;10.03;7.90;;;;;;;4.18;100.00;97385.09;5039799;28;20201;-29
2020/12/29 10:09:17;;;;;;;12.63;7.80;;;;;;;4.18;100.00;97391.06;5043000;28;20288;-31
2020/12/29 10:12:04;;;;;;;11.00;7.80;;;;;;;4.13;100.00;97398.88;5040548;28;20197;-30
2020/12/29 10:14:51;;;;;;;10.70;8.47;;;;;;;4.30;100.00;97393.25;5043620;28;20217;-31
2020/12/29 10:17:38;;;;;;;14.83;8.23;;;;;;;4.19;100.00;97397.84;5040346;28;20300;-30
2020/12/29 10:20:24;;;;;;;13.30;8.80;;;;;;;4.00;100.00;97405.19;5039974;28;20325;-30
2020/12/29 10:23:11;;;;;;;13.87;8.73;;;;;;;4.19;100.00;97402.97;5040067;28;20205;-30
2020/12/29 10:25:56;;;;;;;12.87;8.80;;;;;;;4.07;100.00;97396.47;5039669;28;20272;-31
2020/12/29 10:28:43;;;;;;;11.57;8.60;;;;;;;4.10;100.00;97401.50;5039390;28;20197;-30
2020/12/29 10:31:30;;;;;;;10.40;8.30;;;;;;;4.06;100.00;97405.03;5039402;28;20214;-30
2020/12/29 10:34:17;;;;;;;12.57;8.60;;;;;;;3.88;100.00;97397.06;5039194;28;20511;-30
2020/12/29 10:37:03;;;;;;;12.27;9.00;;;;;;;4.08;100.00;97398.16;5040108;28;20205;-30
2020/12/29 10:39:50;;;;;;;11.03;7.83;;;;;;;4.11;100.00;97399.78;5039570;28;20201;-30
2020/12/29 10:42:39;;;;;;;13.67;9.00;;;;;;;4.43;100.00;97404.75;5042746;28;20194;-31
2020/12/29 10:45:25;;;;;;;11.27;8.13;;;;;;;4.03;100.00;97406.84;5038732;28;20233;-30
2020/12/29 10:48:12;;;;;;;15.37;8.93;;;;;;;4.01;100.00;97404.31;5045111;28;20312;-30
2020/12/29 10:50:58;;;;;;;11.30;8.23;;;;;;;4.01;100.00;97409.44;5039347;28;20600;-30
2020/12/29 10:53:44;;;;;;;13.43;8.63;;;;;;;3.91;100.00;97408.03;5039715;28;20624;-30
2020/12/29 10:56:33;;;;;;;15.27;9.33;;;;;;;4.03;100.00;97415.34;5039201;28;20216;-30
2020/12/29 10:59:20;;;;;;;10.77;7.83;;;;;;;4.13;100.00;97413.38;5040052;28;20198;-30
2020/12/29 11:02:08;;;;;;;14.67;8.93;;;;;;;4.31;100.00;97427.34;5038769;28;20221;-31
2020/12/29 11:04:55;;;;;;;12.10;7.90;;;;;;;4.39;100.00;97435.63;5039922;28;20281;-31
2020/12/29 11:07:41;;;;;;;13.73;9.20;;;;;;;4.29;100.00;97435.06;5039850;28;20233;-29
2020/12/29 11:10:29;;;;;;;9.77;7.30;;;;;;;4.23;100.00;97436.94;5039304;28;20197;-30
2020/12/29 11:13:17;;;;;;;17.33;9.83;;;;;;;4.45;100.00;97443.94;5040393;28;20203;-29
2020/12/29 11:16:03;;;;;;;13.70;8.73;;;;;;;4.65;100.00;97438.22;5041287;28;20224;-31
2020/12/29 11:18:50;;;;;;;12.30;8.83;;;;;;;4.52;100.00;97452.28;5039720;28;20229;-31
2020/12/29 11:21:38;;;;;;;12.97;8.87;;;;;;;4.60;100.00;97452.88;5038570;28;20215;-29
2020/12/29 11:24:24;;;;;;;11.97;8.97;;;;;;;4.83;100.00;97452.16;5038258;28;20345;-30
2020/12/29 11:27:13;;;;;;;11.23;8.57;;;;;;;4.87;100.00;97448.63;5038301;28;20231;-30
2020/12/29 11:30:03;;;;;;;17.37;9.33;;;;;;;4.74;100.00;97457.59;5038317;28;20202;-30
2020/12/29 11:32:54;;;;;;;13.33;9.30;;;;;;;4.60;100.00;97452.88;5038557;28;20298;-31
2020/12/29 11:35:49;;;;;;;14.00;8.60;;;;;;;4.72;100.00;97459.34;5036455;28;20719;-30
2020/12/29 11:38:38;;;;;;;16.17;8.93;;;;;;;4.72;100.00;97465.31;5038318;28;20226;-30
2020/12/29 11:41:23;;;;;;;14.70;9.03;;;;;;;4.89;100.00;97463.94;5034080;28;20256;-31
2020/12/29 11:44:11;;;;;;;12.77;8.00;;;;;;;4.97;100.00;97460.25;5029202;28;20207;-30
2020/12/29 11:47:04;;;;;;;14.10;7.40;;;;;;;4.84;100.00;97469.19;5032928;28;20223;-30
2020/12/29 11:49:55;;;;;;;11.83;7.53;;;;;;;5.01;100.00;97474.63;5023601;28;20669;-31
2020/12/29 11:52:47;;;;;;;13.10;8.33;;;;;;;4.88;100.00;97475.91;5017393;28;20212;-31
2020/12/29 11:55:38;;;;;;;12.63;8.50;;;;;;;4.91;100.00;97477.53;5032925;28;20226;-30
2020/12/29 11:58:26;;;;;;;12.67;8.40;;;;;;;4.91;100.00;97486.06;5034892;28;20498;-30
2020/12/29 12:01:12;;;;;;;13.87;8.57;;;;;;;5.17;100.00;97492.94;5018315;28;20264;-30
2020/12/29 12:04:01;;;;;;;13.13;8.80;;;;;;;5.07;100.00;97494.94;5019891;28;20254;-30
2020/12/29 12:06:50;;;;;;;12.87;8.53;;;;;;;5.04;100.00;97500.16;5019235;28;20347;-31
2020/12/29 12:09:36;;;;;;;18.13;8.80;;;;;;;4.72;100.00;97490.91;5022689;28;20212;-30
2020/12/29 12:12:23;;;;;;;12.43;8.80;;;;;;;4.66;100.00;97505.63;5037581;28;20206;-30
2020/12/29 12:15:14;;;;;;;12.37;8.70;;;;;;;4.82;100.00;97501.69;5041464;28;20214;-30
2020/12/29 12:18:01;;;;;;;13.63;9.73;;;;;;;5.15;100.00;97503.22;5041304;28;20207;-31
2020/12/29 12:20:49;;;;;;;13.33;10.00;;;;;;;4.87;100.00;97510.09;5041606;28;20203;-30
2020/12/29 12:23:38;;;;;;;14.97;11.30;;;;;;;4.88;100.00;97510.91;5031594;28;20197;-31
2020/12/29 12:26:27;;;;;;;18.53;12.37;;;;;;;4.90;100.00;97516.84;5026389;28;20209;-30
2020/12/29 12:29:20;;;;;;;19.33;13.17;;;;;;;5.10;100.00;97519.63;5022067;28;20262;-30
2020/12/29 12:32:06;;;;;;;23.63;16.17;;;;;;;4.57;100.00;97519.53;5021970;28;20203;-30
2020/12/29 12:34:55;;;;;;;26.63;18.53;;;;;;;4.36;100.00;97513.31;5034587;28;20231;-30
2020/12/29 12:37:40;;;;;;;30.20;20.57;;;;;;;4.46;100.00;97535.19;5030276;28;20358;-30
2020/12/29 12:40:27;;;;;;;27.50;19.03;;;;;;;4.29;100.00;97532.28;5024123;28;20273;-30
2020/12/29 12:43:14;;;;;;;30.37;19.30;;;;;;;4.37;100.00;97539.75;5022929;28;20211;-30
2020/12/29 12:46:06;;;;;;;23.63;17.57;;;;;;;4.40;100.00;97548.16;5028143;28;20262;-30
2020/12/29 12:49:00;;;;;;;25.27;19.23;;;;;;;4.08;100.00;97549.06;5035445;28;20203;-32
2020/12/29 12:51:48;;;;;;;31.53;19.63;;;;;;;4.17;100.00;97547.13;5041149;28;20204;-31
2020/12/29 12:54:37;;;;;;;33.83;21.50;;;;;;;4.23;100.00;97552.91;5041151;28;20198;-31
2020/12/29 12:57:24;;;;;;;29.00;22.43;;;;;;;4.39;100.00;97563.59;5023240;28;20251;-31
2020/12/29 13:00:10;;;;;;;33.50;22.30;;;;;;;3.95;100.00;97555.38;5024105;28;20197;-31
2020/12/29 13:02:58;;;;;;;37.23;24.17;;;;;;;4.26;100.00;97555.38;5023990;28;20194;-31
2020/12/29 13:05:45;;;;;;;32.20;20.40;;;;;;;4.04;100.00;97578.16;5026003;28;20201;-31